Time;durP1;ratioP1;P1;durP2;ratioP2;P2;SDS_P1;SDS_P2;PMS_P1;PMS_P2;Temp;Humidity;BMP_temperature;BMP_pressure;BME280_temperature;BME280_humidity;BME280_pressure;Samples;Min_cycle;Max_cycle;Signal;HPM_P1;HPM_P2
2022/10/25 00:00:46;;;;;;;0.00;0.00;;;;;;;;;;1740546;28;20284;-69
2022/10/25 00:01:42;;;;;;;0.00;0.00;;;;;;;;;;1740374;28;20254;-69
2022/10/25 00:02:35;;;;;;;0.00;0.00;;;;;;;;;;1740315;28;20222;-69
2022/10/25 00:03:28;;;;;;;0.00;0.00;;;;;;;;;;1737635;28;20206;-69
2022/10/25 00:04:20;;;;;;;0.00;0.00;;;;;;;;;;1738224;28;20238;-69
2022/10/25 00:05:14;;;;;;;0.00;0.00;;;;;;;;;;1740711;28;20199;-69
2022/10/25 00:06:05;;;;;;;0.00;0.00;;;;;;;;;;1740123;28;20217;-70
2022/10/25 00:06:57;;;;;;;0.00;0.00;;;;;;;;;;1747729;28;20197;-70
2022/10/25 00:07:48;;;;;;;0.00;0.00;;;;;;;;;;1746923;28;20304;-70
2022/10/25 00:08:40;;;;;;;0.00;0.00;;;;;;;;;;1746999;28;20213;-70
2022/10/25 00:09:31;;;;;;;0.00;0.00;;;;;;;;;;1746906;28;20244;-70
2022/10/25 00:10:23;;;;;;;0.00;0.00;;;;;;;;;;1747604;28;20190;-70
2022/10/25 00:11:16;;;;;;;0.00;0.00;;;;;;;;;;1746902;28;20655;-69
2022/10/25 00:12:09;;;;;;;0.00;0.00;;;;;;;;;;1747119;28;20225;-69
2022/10/25 00:13:00;;;;;;;0.00;0.00;;;;;;;;;;1747097;28;20294;-69
2022/10/25 00:13:53;;;;;;;0.00;0.00;;;;;;;;;;1747293;28;20264;-69
2022/10/25 00:14:44;;;;;;;0.00;0.00;;;;;;;;;;1747268;28;20348;-69
2022/10/25 00:15:36;;;;;;;0.00;0.00;;;;;;;;;;1747344;28;20532;-69
2022/10/25 00:16:28;;;;;;;0.00;0.00;;;;;;;;;;1747136;28;20750;-69
2022/10/25 00:17:20;;;;;;;0.00;0.00;;;;;;;;;;1746753;28;20596;-69
2022/10/25 00:18:11;;;;;;;0.00;0.00;;;;;;;;;;1747250;28;20587;-69
2022/10/25 00:19:05;;;;;;;0.00;0.00;;;;;;;;;;1744891;28;20233;-69
2022/10/25 00:19:56;;;;;;;0.00;0.00;;;;;;;;;;1740447;28;20704;-68
2022/10/25 00:20:48;;;;;;;0.00;0.00;;;;;;;;;;1740666;28;20514;-69
2022/10/25 00:21:39;;;;;;;0.00;0.00;;;;;;;;;;1740062;28;20243;-69
2022/10/25 00:22:31;;;;;;;0.00;0.00;;;;;;;;;;1740164;28;20211;-69
2022/10/25 00:23:22;;;;;;;0.00;0.00;;;;;;;;;;1740464;28;20249;-69
2022/10/25 00:24:15;;;;;;;0.00;0.00;;;;;;;;;;1740354;28;20663;-69
2022/10/25 00:25:07;;;;;;;0.00;0.00;;;;;;;;;;1740836;28;20210;-69
2022/10/25 00:26:01;;;;;;;0.00;0.00;;;;;;;;;;1740050;28;20249;-69
2022/10/25 00:26:52;;;;;;;0.00;0.00;;;;;;;;;;1740045;28;20214;-69
2022/10/25 00:27:44;;;;;;;0.00;0.00;;;;;;;;;;1738113;28;20214;-69
2022/10/25 00:28:35;;;;;;;0.00;0.00;;;;;;;;;;1739815;28;20249;-69
2022/10/25 00:29:27;;;;;;;0.00;0.00;;;;;;;;;;1739898;28;20438;-69
2022/10/25 00:30:18;;;;;;;0.00;0.00;;;;;;;;;;1740736;28;20253;-69
2022/10/25 00:31:11;;;;;;;0.00;0.00;;;;;;;;;;1740029;28;20203;-70
2022/10/25 00:32:02;;;;;;;0.00;0.00;;;;;;;;;;1739507;28;20258;-70
2022/10/25 00:32:54;;;;;;;0.00;0.00;;;;;;;;;;1740260;28;20494;-70
2022/10/25 00:33:45;;;;;;;0.00;0.00;;;;;;;;;;1740188;28;20230;-70
2022/10/25 00:34:40;;;;;;;0.00;0.00;;;;;;;;;;1740115;28;20245;-71
2022/10/25 00:35:31;;;;;;;0.00;0.00;;;;;;;;;;1740459;28;20234;-72
2022/10/25 00:36:24;;;;;;;0.00;0.00;;;;;;;;;;1740012;28;20337;-71
2022/10/25 00:37:15;;;;;;;0.00;0.00;;;;;;;;;;1740098;28;20297;-71
2022/10/25 00:38:07;;;;;;;0.00;0.00;;;;;;;;;;1740203;28;20209;-71
2022/10/25 00:38:59;;;;;;;0.00;0.00;;;;;;;;;;1740352;28;20243;-71
2022/10/25 00:39:51;;;;;;;0.00;0.00;;;;;;;;;;1740077;28;20214;-71
2022/10/25 00:40:42;;;;;;;0.00;0.00;;;;;;;;;;1739952;28;20249;-71
2022/10/25 00:41:34;;;;;;;0.00;0.00;;;;;;;;;;1740301;28;20653;-72
2022/10/25 00:42:26;;;;;;;0.00;0.00;;;;;;;;;;1739762;28;20214;-72
2022/10/25 00:43:31;;;;;;;0.00;0.00;;;;;;;;;;1737363;28;20213;-72
2022/10/25 00:44:40;;;;;;;0.00;0.00;;;;;;;;;;1740037;28;20266;-72
2022/10/25 00:45:32;;;;;;;0.00;0.00;;;;;;;;;;1740497;28;20774;-72
2022/10/25 00:46:24;;;;;;;0.00;0.00;;;;;;;;;;1739973;28;20245;-72
2022/10/25 00:47:23;;;;;;;0.00;0.00;;;;;;;;;;1740300;28;20637;-72
2022/10/25 00:48:15;;;;;;;0.00;0.00;;;;;;;;;;1739752;28;20218;-72
2022/10/25 00:49:11;;;;;;;0.00;0.00;;;;;;;;;;1740196;28;20564;-72
2022/10/25 00:50:14;;;;;;;0.00;0.00;;;;;;;;;;1740451;28;20286;-72
2022/10/25 00:51:06;;;;;;;0.00;0.00;;;;;;;;;;1739911;28;20210;-71
2022/10/25 00:51:59;;;;;;;0.00;0.00;;;;;;;;;;1739939;28;20281;-71
2022/10/25 00:52:52;;;;;;;0.00;0.00;;;;;;;;;;1739823;28;20199;-71
2022/10/25 00:53:43;;;;;;;0.00;0.00;;;;;;;;;;1740001;28;20590;-71
2022/10/25 00:54:38;;;;;;;0.00;0.00;;;;;;;;;;1746342;28;20236;-71
2022/10/25 00:55:29;;;;;;;0.00;0.00;;;;;;;;;;1747449;28;20293;-71
2022/10/25 00:56:23;;;;;;;0.00;0.00;;;;;;;;;;1747058;28;20505;-72
2022/10/25 00:57:15;;;;;;;0.00;0.00;;;;;;;;;;1746940;28;20293;-72
2022/10/25 00:58:08;;;;;;;0.00;0.00;;;;;;;;;;1746980;28;20237;-72
2022/10/25 00:59:01;;;;;;;0.00;0.00;;;;;;;;;;1746493;28;20312;-72
2022/10/25 00:59:53;;;;;;;0.00;0.00;;;;;;;;;;1747248;28;20280;-72
2022/10/25 01:00:44;;;;;;;0.00;0.00;;;;;;;;;;1746998;28;20202;-72
2022/10/25 01:01:37;;;;;;;0.00;0.00;;;;;;;;;;1747246;28;20602;-72
2022/10/25 01:02:28;;;;;;;0.00;0.00;;;;;;;;;;1746695;28;20226;-72
2022/10/25 01:03:23;;;;;;;0.00;0.00;;;;;;;;;;1747041;28;20267;-72
2022/10/25 01:04:15;;;;;;;0.00;0.00;;;;;;;;;;1746611;28;20691;-72
2022/10/25 01:05:09;;;;;;;0.00;0.00;;;;;;;;;;1747343;28;20454;-72
2022/10/25 01:06:01;;;;;;;0.00;0.00;;;;;;;;;;1746829;28;20253;-71
2022/10/25 01:06:53;;;;;;;0.00;0.00;;;;;;;;;;1747037;28;20202;-71
2022/10/25 01:07:44;;;;;;;0.00;0.00;;;;;;;;;;1740114;28;20234;-71
2022/10/25 01:08:36;;;;;;;0.00;0.00;;;;;;;;;;1745853;28;20206;-71
2022/10/25 01:09:29;;;;;;;0.00;0.00;;;;;;;;;;1746780;28;20210;-71
2022/10/25 01:10:21;;;;;;;0.00;0.00;;;;;;;;;;1747456;28;20365;-71
2022/10/25 01:11:12;;;;;;;0.00;0.00;;;;;;;;;;1746576;28;20234;-72
2022/10/25 01:12:04;;;;;;;0.00;0.00;;;;;;;;;;1746713;28;20198;-69
2022/10/25 01:12:56;;;;;;;0.00;0.00;;;;;;;;;;1746763;28;20226;-69
2022/10/25 01:13:48;;;;;;;0.00;0.00;;;;;;;;;;1747141;28;20256;-69
2022/10/25 01:14:47;;;;;;;0.00;0.00;;;;;;;;;;1747017;28;20233;-69
2022/10/25 01:15:41;;;;;;;0.00;0.00;;;;;;;;;;1747087;28;20186;-69
2022/10/25 01:16:36;;;;;;;0.00;0.00;;;;;;;;;;1747247;28;20298;-69
2022/10/25 01:17:30;;;;;;;0.00;0.00;;;;;;;;;;1743840;28;20399;-69
2022/10/25 01:18:23;;;;;;;0.00;0.00;;;;;;;;;;1740235;28;20238;-69
2022/10/25 01:19:23;;;;;;;0.00;0.00;;;;;;;;;;1739677;28;20218;-69
2022/10/25 01:20:27;;;;;;;0.00;0.00;;;;;;;;;;1740692;28;20298;-70
2022/10/25 01:21:46;;;;;;;0.00;0.00;;;;;;;;;;1739717;28;20326;-68
2022/10/25 01:22:39;;;;;;;0.00;0.00;;;;;;;;;;1718571;28;20428;-68
2022/10/25 01:23:40;;;;;;;0.00;0.00;;;;;;;;;;1726779;28;20236;-69
2022/10/25 01:24:43;;;;;;;0.00;0.00;;;;;;;;;;1739793;28;20238;-69
2022/10/25 01:25:50;;;;;;;0.00;0.00;;;;;;;;;;1740106;28;20210;-68
2022/10/25 01:27:06;;;;;;;0.00;0.00;;;;;;;;;;1740107;28;20237;-69
2022/10/25 01:28:07;;;;;;;0.00;0.00;;;;;;;;;;1739853;28;20716;-70
2022/10/25 01:29:06;;;;;;;0.00;0.00;;;;;;;;;;1740024;28;20289;-69
2022/10/25 01:30:05;;;;;;;0.00;0.00;;;;;;;;;;1739999;28;20195;-70
2022/10/25 01:31:10;;;;;;;0.00;0.00;;;;;;;;;;1739940;28;20202;-69
2022/10/25 01:32:04;;;;;;;0.00;0.00;;;;;;;;;;1739658;28;20222;-68
2022/10/25 01:33:07;;;;;;;0.00;0.00;;;;;;;;;;1739968;28;20240;-68
2022/10/25 01:34:02;;;;;;;0.00;0.00;;;;;;;;;;1739886;28;20206;-68
2022/10/25 01:34:56;;;;;;;0.00;0.00;;;;;;;;;;1740196;28;20250;-68
2022/10/25 01:35:52;;;;;;;0.00;0.00;;;;;;;;;;1740090;28;20536;-68
2022/10/25 01:36:45;;;;;;;0.00;0.00;;;;;;;;;;1739667;28;20297;-70
2022/10/25 01:37:41;;;;;;;0.00;0.00;;;;;;;;;;1739989;28;20218;-70
2022/10/25 01:38:36;;;;;;;0.00;0.00;;;;;;;;;;1740179;28;20253;-69
2022/10/25 01:39:30;;;;;;;0.00;0.00;;;;;;;;;;1739657;28;20213;-69
2022/10/25 01:40:23;;;;;;;0.00;0.00;;;;;;;;;;1734365;28;20279;-70
2022/10/25 01:41:20;;;;;;;0.00;0.00;;;;;;;;;;1739689;28;20206;-69
2022/10/25 01:42:16;;;;;;;0.00;0.00;;;;;;;;;;1739296;28;20290;-69
2022/10/25 01:43:10;;;;;;;0.00;0.00;;;;;;;;;;1740096;28;20219;-70
2022/10/25 01:44:07;;;;;;;0.00;0.00;;;;;;;;;;1739702;28;20559;-70
2022/10/25 01:45:04;;;;;;;0.00;0.00;;;;;;;;;;1740298;28;20527;-70
2022/10/25 01:46:00;;;;;;;0.00;0.00;;;;;;;;;;1739929;28;20227;-69
2022/10/25 01:46:58;;;;;;;0.00;0.00;;;;;;;;;;1740082;28;20226;-69
2022/10/25 01:47:50;;;;;;;0.00;0.00;;;;;;;;;;1739636;28;20191;-69
2022/10/25 01:48:46;;;;;;;0.00;0.00;;;;;;;;;;1740092;28;20286;-68
2022/10/25 01:49:40;;;;;;;0.00;0.00;;;;;;;;;;1740122;28;20260;-68
2022/10/25 01:50:35;;;;;;;0.00;0.00;;;;;;;;;;1739829;28;20213;-68
2022/10/25 01:51:26;;;;;;;0.00;0.00;;;;;;;;;;1739698;28;20257;-69
2022/10/25 01:52:19;;;;;;;0.00;0.00;;;;;;;;;;1739966;28;20312;-69
2022/10/25 01:53:11;;;;;;;0.00;0.00;;;;;;;;;;1741190;28;20202;-68
2022/10/25 01:54:03;;;;;;;0.00;0.00;;;;;;;;;;1741351;28;20223;-69
2022/10/25 01:54:54;;;;;;;0.00;0.00;;;;;;;;;;1741417;28;20590;-69
2022/10/25 01:55:48;;;;;;;0.00;0.00;;;;;;;;;;1741867;28;20191;-68
2022/10/25 01:56:44;;;;;;;0.00;0.00;;;;;;;;;;1741277;28;20239;-68
2022/10/25 01:57:43;;;;;;;0.00;0.00;;;;;;;;;;1740996;28;20621;-68
2022/10/25 01:58:42;;;;;;;0.00;0.00;;;;;;;;;;1740579;28;20242;-68
2022/10/25 01:59:44;;;;;;;0.00;0.00;;;;;;;;;;1741092;28;20294;-68
2022/10/25 02:00:39;;;;;;;0.00;0.00;;;;;;;;;;1741257;28;20614;-68
2022/10/25 02:01:35;;;;;;;0.00;0.00;;;;;;;;;;1741475;28;20584;-69
2022/10/25 02:02:29;;;;;;;0.00;0.00;;;;;;;;;;1740960;28;20338;-69
2022/10/25 02:03:24;;;;;;;0.00;0.00;;;;;;;;;;1741062;28;20260;-70
2022/10/25 02:04:18;;;;;;;0.00;0.00;;;;;;;;;;1740654;28;20293;-69
2022/10/25 02:05:15;;;;;;;0.00;0.00;;;;;;;;;;1741318;28;20214;-69
2022/10/25 02:06:11;;;;;;;0.00;0.00;;;;;;;;;;1741056;28;20233;-70
2022/10/25 02:07:05;;;;;;;0.00;0.00;;;;;;;;;;1741287;28;20266;-69
2022/10/25 02:08:00;;;;;;;0.00;0.00;;;;;;;;;;1740826;28;20636;-70
2022/10/25 02:08:53;;;;;;;0.00;0.00;;;;;;;;;;1740619;28;20293;-70
2022/10/25 02:09:50;;;;;;;0.00;0.00;;;;;;;;;;1741298;28;20241;-69
2022/10/25 02:10:46;;;;;;;0.00;0.00;;;;;;;;;;1741274;28;20191;-70
2022/10/25 02:11:38;;;;;;;0.00;0.00;;;;;;;;;;1741450;28;20234;-69
2022/10/25 02:12:31;;;;;;;0.00;0.00;;;;;;;;;;1740906;28;20217;-68
2022/10/25 02:13:26;;;;;;;0.00;0.00;;;;;;;;;;1741091;28;20234;-69
2022/10/25 02:14:22;;;;;;;0.00;0.00;;;;;;;;;;1741005;28;20206;-69
2022/10/25 02:15:17;;;;;;;0.00;0.00;;;;;;;;;;1734932;28;20235;-69
2022/10/25 02:16:11;;;;;;;0.00;0.00;;;;;;;;;;1739979;28;20558;-69
2022/10/25 02:17:04;;;;;;;0.00;0.00;;;;;;;;;;1741269;28;20326;-69
2022/10/25 02:17:59;;;;;;;0.00;0.00;;;;;;;;;;1739551;28;20636;-69
2022/10/25 02:18:53;;;;;;;0.00;0.00;;;;;;;;;;1741122;28;20237;-69
2022/10/25 02:19:47;;;;;;;0.00;0.00;;;;;;;;;;1737029;28;20199;-69
2022/10/25 02:20:40;;;;;;;0.00;0.00;;;;;;;;;;1741556;28;20241;-69
2022/10/25 02:21:33;;;;;;;0.00;0.00;;;;;;;;;;1737528;28;20214;-70
2022/10/25 02:22:26;;;;;;;0.00;0.00;;;;;;;;;;1736183;28;20668;-70
2022/10/25 02:23:19;;;;;;;0.00;0.00;;;;;;;;;;1736798;28;20211;-70
2022/10/25 02:24:13;;;;;;;0.00;0.00;;;;;;;;;;1737114;28;20226;-70
2022/10/25 02:25:06;;;;;;;0.00;0.00;;;;;;;;;;1736228;28;20212;-70
2022/10/25 02:25:58;;;;;;;0.00;0.00;;;;;;;;;;1738166;28;20318;-70
2022/10/25 02:26:50;;;;;;;0.00;0.00;;;;;;;;;;1741267;28;20195;-70
2022/10/25 02:27:42;;;;;;;0.00;0.00;;;;;;;;;;1740670;28;20238;-70
2022/10/25 02:28:36;;;;;;;0.00;0.00;;;;;;;;;;1741379;28;20285;-70
2022/10/25 02:29:30;;;;;;;0.00;0.00;;;;;;;;;;1740484;28;20250;-70
2022/10/25 02:30:22;;;;;;;0.00;0.00;;;;;;;;;;1741370;28;20207;-70
2022/10/25 02:31:14;;;;;;;0.00;0.00;;;;;;;;;;1741084;28;20293;-69
2022/10/25 02:32:07;;;;;;;0.00;0.00;;;;;;;;;;1740742;28;20286;-69
2022/10/25 02:32:59;;;;;;;0.00;0.00;;;;;;;;;;1740880;28;20254;-69
2022/10/25 02:33:51;;;;;;;0.00;0.00;;;;;;;;;;1740748;28;20206;-69
2022/10/25 02:34:42;;;;;;;0.00;0.00;;;;;;;;;;1737492;28;20547;-68
2022/10/25 02:35:33;;;;;;;0.00;0.00;;;;;;;;;;1741341;28;20628;-69
2022/10/25 02:36:25;;;;;;;0.00;0.00;;;;;;;;;;1740605;28;20356;-69
2022/10/25 02:37:17;;;;;;;0.00;0.00;;;;;;;;;;1740901;28;20234;-69
2022/10/25 02:38:09;;;;;;;0.00;0.00;;;;;;;;;;1737660;28;20261;-68
2022/10/25 02:39:00;;;;;;;0.00;0.00;;;;;;;;;;1735726;28;20327;-68
2022/10/25 02:39:52;;;;;;;0.00;0.00;;;;;;;;;;1733852;28;20322;-68
2022/10/25 02:40:43;;;;;;;0.00;0.00;;;;;;;;;;1732427;28;20841;-68
2022/10/25 02:41:35;;;;;;;0.00;0.00;;;;;;;;;;1739685;28;20222;-70
2022/10/25 02:42:26;;;;;;;0.00;0.00;;;;;;;;;;1736217;28;20269;-70
2022/10/25 02:43:18;;;;;;;0.00;0.00;;;;;;;;;;1741265;28;20207;-70
2022/10/25 02:44:09;;;;;;;0.00;0.00;;;;;;;;;;1740834;28;20234;-70
2022/10/25 02:45:03;;;;;;;0.00;0.00;;;;;;;;;;1736491;28;20273;-69
2022/10/25 02:45:54;;;;;;;0.00;0.00;;;;;;;;;;1737674;28;20203;-69
2022/10/25 02:46:46;;;;;;;0.00;0.00;;;;;;;;;;1735423;28;20223;-69
2022/10/25 02:47:37;;;;;;;0.00;0.00;;;;;;;;;;1738000;28;20582;-69
2022/10/25 02:48:30;;;;;;;0.00;0.00;;;;;;;;;;1740930;28;20203;-69
2022/10/25 02:49:21;;;;;;;0.00;0.00;;;;;;;;;;1740824;28;20357;-68
2022/10/25 02:50:13;;;;;;;0.00;0.00;;;;;;;;;;1741402;28;20210;-69
2022/10/25 02:51:04;;;;;;;0.00;0.00;;;;;;;;;;1740599;28;20241;-68
2022/10/25 02:51:56;;;;;;;0.00;0.00;;;;;;;;;;1740268;28;20525;-69
2022/10/25 02:52:48;;;;;;;0.00;0.00;;;;;;;;;;1733302;28;20590;-69
2022/10/25 02:53:40;;;;;;;0.00;0.00;;;;;;;;;;1740742;28;20242;-69
2022/10/25 02:54:31;;;;;;;0.00;0.00;;;;;;;;;;1740476;28;20242;-68
2022/10/25 02:55:23;;;;;;;0.00;0.00;;;;;;;;;;1741416;28;20218;-68
2022/10/25 02:56:15;;;;;;;0.00;0.00;;;;;;;;;;1740795;28;20230;-69
2022/10/25 02:57:06;;;;;;;0.00;0.00;;;;;;;;;;1740874;28;20245;-68
2022/10/25 02:57:59;;;;;;;0.00;0.00;;;;;;;;;;1742755;28;20245;-71
2022/10/25 02:58:51;;;;;;;0.00;0.00;;;;;;;;;;1747614;28;20293;-71
2022/10/25 02:59:43;;;;;;;0.00;0.00;;;;;;;;;;1747766;28;20202;-71
2022/10/25 03:00:34;;;;;;;0.00;0.00;;;;;;;;;;1747926;28;20252;-71
2022/10/25 03:01:26;;;;;;;0.00;0.00;;;;;;;;;;1747699;28;20206;-72
2022/10/25 03:02:18;;;;;;;0.00;0.00;;;;;;;;;;1747621;28;20249;-72
2022/10/25 03:03:10;;;;;;;0.00;0.00;;;;;;;;;;1747391;28;20202;-72
2022/10/25 03:04:02;;;;;;;0.00;0.00;;;;;;;;;;1746958;28;20237;-72
2022/10/25 03:04:54;;;;;;;0.00;0.00;;;;;;;;;;1747673;28;20205;-72
2022/10/25 03:05:45;;;;;;;0.00;0.00;;;;;;;;;;1748303;28;20209;-72
2022/10/25 03:06:37;;;;;;;0.00;0.00;;;;;;;;;;1747970;28;20206;-72
2022/10/25 03:07:28;;;;;;;0.00;0.00;;;;;;;;;;1747479;28;20680;-72
2022/10/25 03:08:21;;;;;;;0.00;0.00;;;;;;;;;;1747845;28;20229;-72
2022/10/25 03:09:12;;;;;;;0.00;0.00;;;;;;;;;;1747084;28;20251;-72
2022/10/25 03:10:07;;;;;;;0.00;0.00;;;;;;;;;;1748125;28;20234;-72
2022/10/25 03:10:59;;;;;;;0.00;0.00;;;;;;;;;;1747544;28;20738;-71
2022/10/25 03:11:51;;;;;;;0.00;0.00;;;;;;;;;;1747694;28;20568;-71
2022/10/25 03:12:42;;;;;;;0.00;0.00;;;;;;;;;;1747422;28;20663;-71
2022/10/25 03:13:34;;;;;;;0.00;0.00;;;;;;;;;;1747820;28;20233;-71
2022/10/25 03:14:25;;;;;;;0.00;0.00;;;;;;;;;;1747446;28;20317;-71
2022/10/25 03:15:17;;;;;;;0.00;0.00;;;;;;;;;;1747871;28;20198;-71
2022/10/25 03:16:08;;;;;;;0.00;0.00;;;;;;;;;;1747440;28;20289;-71
2022/10/25 03:17:00;;;;;;;0.00;0.00;;;;;;;;;;1747568;28;20285;-71
2022/10/25 03:17:51;;;;;;;0.00;0.00;;;;;;;;;;1747743;28;20690;-71
2022/10/25 03:18:43;;;;;;;0.00;0.00;;;;;;;;;;1748036;28;20296;-71
2022/10/25 03:19:36;;;;;;;0.00;0.00;;;;;;;;;;1742134;28;20277;-71
2022/10/25 03:20:28;;;;;;;0.00;0.00;;;;;;;;;;1741418;28;20652;-71
2022/10/25 03:21:19;;;;;;;0.00;0.00;;;;;;;;;;1740185;28;20306;-71
2022/10/25 03:22:11;;;;;;;0.00;0.00;;;;;;;;;;1740523;28;20237;-71
2022/10/25 03:23:02;;;;;;;0.00;0.00;;;;;;;;;;1739829;28;20210;-71
2022/10/25 03:23:54;;;;;;;0.00;0.00;;;;;;;;;;1740537;28;20202;-71
2022/10/25 03:24:45;;;;;;;0.00;0.00;;;;;;;;;;1740424;28;20246;-71
2022/10/25 03:25:37;;;;;;;0.00;0.00;;;;;;;;;;1740812;28;20210;-71
2022/10/25 03:26:28;;;;;;;0.00;0.00;;;;;;;;;;1740829;28;20249;-71
2022/10/25 03:27:20;;;;;;;0.00;0.00;;;;;;;;;;1740507;28;20265;-71
2022/10/25 03:28:11;;;;;;;0.00;0.00;;;;;;;;;;1740824;28;20293;-71
2022/10/25 03:29:04;;;;;;;0.00;0.00;;;;;;;;;;1740693;28;20699;-71
2022/10/25 03:29:55;;;;;;;0.00;0.00;;;;;;;;;;1740385;28;20321;-71
2022/10/25 03:30:47;;;;;;;0.00;0.00;;;;;;;;;;1743386;28;20222;-71
2022/10/25 03:31:38;;;;;;;0.00;0.00;;;;;;;;;;1747437;28;20297;-72
2022/10/25 03:32:30;;;;;;;0.00;0.00;;;;;;;;;;1747348;28;20655;-72
2022/10/25 03:33:22;;;;;;;0.00;0.00;;;;;;;;;;1747625;28;20265;-72
2022/10/25 03:34:14;;;;;;;0.00;0.00;;;;;;;;;;1747240;28;20241;-72
2022/10/25 03:35:07;;;;;;;0.00;0.00;;;;;;;;;;1748024;28;20226;-72
2022/10/25 03:35:59;;;;;;;0.00;0.00;;;;;;;;;;1746924;28;20778;-71
2022/10/25 03:36:52;;;;;;;0.00;0.00;;;;;;;;;;1747593;28;20700;-71
2022/10/25 03:37:43;;;;;;;0.00;0.00;;;;;;;;;;1742157;28;20286;-71
2022/10/25 03:38:35;;;;;;;0.00;0.00;;;;;;;;;;1740651;28;20234;-72
2022/10/25 03:39:26;;;;;;;0.00;0.00;;;;;;;;;;1740360;28;20211;-71
2022/10/25 03:40:18;;;;;;;0.00;0.00;;;;;;;;;;1734362;28;20196;-71
2022/10/25 03:41:09;;;;;;;0.00;0.00;;;;;;;;;;1739364;28;20226;-72
2022/10/25 03:42:02;;;;;;;0.00;0.00;;;;;;;;;;1741447;28;20210;-72
2022/10/25 03:42:53;;;;;;;0.00;0.00;;;;;;;;;;1741003;28;20539;-72
2022/10/25 03:43:45;;;;;;;0.00;0.00;;;;;;;;;;1740919;28;20195;-72
2022/10/25 03:44:36;;;;;;;0.00;0.00;;;;;;;;;;1740320;28;20326;-72
2022/10/25 03:45:27;;;;;;;0.00;0.00;;;;;;;;;;1741185;28;20309;-72
2022/10/25 03:46:19;;;;;;;0.00;0.00;;;;;;;;;;1740106;28;20297;-71
2022/10/25 03:47:10;;;;;;;0.00;0.00;;;;;;;;;;1740750;28;20207;-71
2022/10/25 03:48:02;;;;;;;0.00;0.00;;;;;;;;;;1740655;28;20198;-71
2022/10/25 03:48:53;;;;;;;0.00;0.00;;;;;;;;;;1740380;28;20294;-71
2022/10/25 03:49:45;;;;;;;0.00;0.00;;;;;;;;;;1740543;28;20237;-71
2022/10/25 03:50:37;;;;;;;0.00;0.00;;;;;;;;;;1740700;28;20242;-71
2022/10/25 03:51:29;;;;;;;0.00;0.00;;;;;;;;;;1740251;28;20211;-71
2022/10/25 03:52:20;;;;;;;0.00;0.00;;;;;;;;;;1739765;28;20686;-71
2022/10/25 03:53:13;;;;;;;0.00;0.00;;;;;;;;;;1740657;28;20203;-71
2022/10/25 03:54:04;;;;;;;0.00;0.00;;;;;;;;;;1740536;28;20230;-71
2022/10/25 03:54:56;;;;;;;0.00;0.00;;;;;;;;;;1740658;28;20198;-71
2022/10/25 03:55:47;;;;;;;0.00;0.00;;;;;;;;;;1740798;28;20211;-71
2022/10/25 03:56:39;;;;;;;0.00;0.00;;;;;;;;;;1740441;28;20211;-72
2022/10/25 03:57:30;;;;;;;0.00;0.00;;;;;;;;;;1740212;28;20251;-71
2022/10/25 03:58:22;;;;;;;0.00;0.00;;;;;;;;;;1740413;28;20748;-71
2022/10/25 03:59:13;;;;;;;0.00;0.00;;;;;;;;;;1740076;28;20675;-71
2022/10/25 04:00:06;;;;;;;0.00;0.00;;;;;;;;;;1741025;28;20206;-71
2022/10/25 04:00:58;;;;;;;0.00;0.00;;;;;;;;;;1740187;28;20230;-71
2022/10/25 04:01:50;;;;;;;0.00;0.00;;;;;;;;;;1740544;28;20296;-71
2022/10/25 04:02:41;;;;;;;0.00;0.00;;;;;;;;;;1739975;28;20234;-71
2022/10/25 04:03:33;;;;;;;0.00;0.00;;;;;;;;;;1740440;28;20210;-71
2022/10/25 04:04:24;;;;;;;0.00;0.00;;;;;;;;;;1740411;28;20293;-71
2022/10/25 04:05:16;;;;;;;0.00;0.00;;;;;;;;;;1740660;28;20206;-71
2022/10/25 04:06:09;;;;;;;0.00;0.00;;;;;;;;;;1740383;28;20241;-71
2022/10/25 04:07:01;;;;;;;0.00;0.00;;;;;;;;;;1740523;28;20249;-71
2022/10/25 04:07:52;;;;;;;0.00;0.00;;;;;;;;;;1739917;28;20602;-71
2022/10/25 04:08:44;;;;;;;0.00;0.00;;;;;;;;;;1740196;28;20199;-71
2022/10/25 04:09:35;;;;;;;0.00;0.00;;;;;;;;;;1740279;28;20254;-71
2022/10/25 04:10:28;;;;;;;0.00;0.00;;;;;;;;;;1740973;28;20230;-72
2022/10/25 04:11:19;;;;;;;0.00;0.00;;;;;;;;;;1739985;28;20285;-71
2022/10/25 04:12:11;;;;;;;0.00;0.00;;;;;;;;;;1740315;28;20257;-71
2022/10/25 04:13:02;;;;;;;0.00;0.00;;;;;;;;;;1737097;28;20242;-71
2022/10/25 04:13:54;;;;;;;0.00;0.00;;;;;;;;;;1739976;28;20218;-71
2022/10/25 04:14:45;;;;;;;0.00;0.00;;;;;;;;;;1740449;28;20242;-71
2022/10/25 04:15:37;;;;;;;0.00;0.00;;;;;;;;;;1740405;28;20203;-71
2022/10/25 04:16:29;;;;;;;0.00;0.00;;;;;;;;;;1740477;28;20218;-71
2022/10/25 04:17:21;;;;;;;0.00;0.00;;;;;;;;;;1740198;28;20207;-71
2022/10/25 04:18:12;;;;;;;0.00;0.00;;;;;;;;;;1740732;28;20199;-71
2022/10/25 04:19:04;;;;;;;0.00;0.00;;;;;;;;;;1739931;28;20209;-71
2022/10/25 04:19:55;;;;;;;0.00;0.00;;;;;;;;;;1740551;28;20238;-71
2022/10/25 04:20:47;;;;;;;0.00;0.00;;;;;;;;;;1740730;28;20202;-72
2022/10/25 04:21:39;;;;;;;0.00;0.00;;;;;;;;;;1740404;28;20317;-71
2022/10/25 04:22:31;;;;;;;0.00;0.00;;;;;;;;;;1739843;28;20211;-72
2022/10/25 04:23:22;;;;;;;0.00;0.00;;;;;;;;;;1740233;28;20658;-71
2022/10/25 04:24:14;;;;;;;0.00;0.00;;;;;;;;;;1739896;28;20309;-71
2022/10/25 04:25:06;;;;;;;0.00;0.00;;;;;;;;;;1740635;28;20249;-71
2022/10/25 04:25:58;;;;;;;0.00;0.00;;;;;;;;;;1740084;28;20253;-72
2022/10/25 04:26:49;;;;;;;0.00;0.00;;;;;;;;;;1740505;28;20586;-72
2022/10/25 04:27:41;;;;;;;0.00;0.00;;;;;;;;;;1740086;28;20203;-72
2022/10/25 04:28:32;;;;;;;0.00;0.00;;;;;;;;;;1740522;28;20218;-72
2022/10/25 04:29:24;;;;;;;0.00;0.00;;;;;;;;;;1739884;28;20550;-72
2022/10/25 04:30:15;;;;;;;0.00;0.00;;;;;;;;;;1740632;28;20235;-72
2022/10/25 04:31:07;;;;;;;0.00;0.00;;;;;;;;;;1739954;28;20289;-71
2022/10/25 04:31:58;;;;;;;0.00;0.00;;;;;;;;;;1733267;28;20294;-71
2022/10/25 04:32:50;;;;;;;0.00;0.00;;;;;;;;;;1738987;28;20597;-71
2022/10/25 04:33:42;;;;;;;0.00;0.00;;;;;;;;;;1740235;28;20752;-71
2022/10/25 04:34:34;;;;;;;0.00;0.00;;;;;;;;;;1740049;28;20206;-71
2022/10/25 04:35:25;;;;;;;0.00;0.00;;;;;;;;;;1740752;28;20578;-71
2022/10/25 04:36:17;;;;;;;0.00;0.00;;;;;;;;;;1739713;28;20203;-71
2022/10/25 04:37:09;;;;;;;0.00;0.00;;;;;;;;;;1740539;28;20655;-71
2022/10/25 04:38:01;;;;;;;0.00;0.00;;;;;;;;;;1739376;28;20203;-71
2022/10/25 04:38:52;;;;;;;0.00;0.00;;;;;;;;;;1739965;28;20303;-72
2022/10/25 04:39:45;;;;;;;0.00;0.00;;;;;;;;;;1740207;28;20222;-71
2022/10/25 04:40:36;;;;;;;0.00;0.00;;;;;;;;;;1741138;28;20203;-71
2022/10/25 04:41:28;;;;;;;0.00;0.00;;;;;;;;;;1747207;28;20233;-72
2022/10/25 04:42:19;;;;;;;0.00;0.00;;;;;;;;;;1746663;28;20234;-72
2022/10/25 04:43:11;;;;;;;0.00;0.00;;;;;;;;;;1747214;28;20537;-72
2022/10/25 04:44:02;;;;;;;0.00;0.00;;;;;;;;;;1746769;28;20659;-72
2022/10/25 04:44:54;;;;;;;0.00;0.00;;;;;;;;;;1747162;28;20628;-72
2022/10/25 04:45:45;;;;;;;0.00;0.00;;;;;;;;;;1747036;28;20613;-73
2022/10/25 04:46:37;;;;;;;0.00;0.00;;;;;;;;;;1747003;28;20665;-71
2022/10/25 04:47:30;;;;;;;0.00;0.00;;;;;;;;;;1746074;28;20802;-71
2022/10/25 04:48:22;;;;;;;0.00;0.00;;;;;;;;;;1740178;28;20215;-71
2022/10/25 04:49:13;;;;;;;0.00;0.00;;;;;;;;;;1740115;28;20306;-71
2022/10/25 04:50:06;;;;;;;0.00;0.00;;;;;;;;;;1740654;28;20249;-71
2022/10/25 04:50:58;;;;;;;0.00;0.00;;;;;;;;;;1739633;28;20239;-71
2022/10/25 04:51:50;;;;;;;0.00;0.00;;;;;;;;;;1740094;28;20206;-71
2022/10/25 04:52:42;;;;;;;0.00;0.00;;;;;;;;;;1739965;28;20253;-71
2022/10/25 04:53:35;;;;;;;0.00;0.00;;;;;;;;;;1740262;28;20234;-71
2022/10/25 04:54:26;;;;;;;0.00;0.00;;;;;;;;;;1739865;28;20203;-71
2022/10/25 04:55:18;;;;;;;0.00;0.00;;;;;;;;;;1740669;28;20198;-71
2022/10/25 04:56:10;;;;;;;0.00;0.00;;;;;;;;;;1740084;28;20230;-72
2022/10/25 04:57:02;;;;;;;0.00;0.00;;;;;;;;;;1739986;28;20587;-72
2022/10/25 04:57:53;;;;;;;0.00;0.00;;;;;;;;;;1739843;28;20249;-72
2022/10/25 04:58:46;;;;;;;0.00;0.00;;;;;;;;;;1740150;28;20231;-72
2022/10/25 04:59:37;;;;;;;0.00;0.00;;;;;;;;;;1739998;28;20700;-72
2022/10/25 05:00:29;;;;;;;0.00;0.00;;;;;;;;;;1740672;28;20226;-72
2022/10/25 05:01:20;;;;;;;0.00;0.00;;;;;;;;;;1739937;28;20207;-71
2022/10/25 05:02:12;;;;;;;0.00;0.00;;;;;;;;;;1739600;28;20202;-71
2022/10/25 05:03:04;;;;;;;0.00;0.00;;;;;;;;;;1740026;28;20245;-71
2022/10/25 05:03:56;;;;;;;0.00;0.00;;;;;;;;;;1740130;28;20696;-71
2022/10/25 05:04:47;;;;;;;0.00;0.00;;;;;;;;;;1740287;28;20293;-71
2022/10/25 05:05:39;;;;;;;0.00;0.00;;;;;;;;;;1740345;28;20297;-71
2022/10/25 05:06:30;;;;;;;0.00;0.00;;;;;;;;;;1740007;28;20298;-72
2022/10/25 05:07:22;;;;;;;0.00;0.00;;;;;;;;;;1739528;28;20671;-72
2022/10/25 05:08:15;;;;;;;0.00;0.00;;;;;;;;;;1740332;28;20249;-73
2022/10/25 05:09:07;;;;;;;0.00;0.00;;;;;;;;;;1739494;28;20203;-73
2022/10/25 05:09:58;;;;;;;0.00;0.00;;;;;;;;;;1740195;28;20234;-72
2022/10/25 05:10:54;;;;;;;0.00;0.00;;;;;;;;;;1740262;28;20209;-72
2022/10/25 05:11:45;;;;;;;0.00;0.00;;;;;;;;;;1740253;28;20192;-71
2022/10/25 05:12:37;;;;;;;0.00;0.00;;;;;;;;;;1739531;28;20210;-71
2022/10/25 05:13:30;;;;;;;0.00;0.00;;;;;;;;;;1739945;28;20297;-71
2022/10/25 05:14:22;;;;;;;0.00;0.00;;;;;;;;;;1742840;28;20245;-72
2022/10/25 05:15:13;;;;;;;0.00;0.00;;;;;;;;;;1747267;28;20253;-71
2022/10/25 05:16:06;;;;;;;0.00;0.00;;;;;;;;;;1746966;28;20195;-71
2022/10/25 05:16:57;;;;;;;0.00;0.00;;;;;;;;;;1746816;28;20244;-72
2022/10/25 05:17:49;;;;;;;0.00;0.00;;;;;;;;;;1746863;28;20281;-72